Weather at Ministry of Interior Heliport

Public forecast

Using degrees Celsius for public forecast. Weather courtesy of forecast.io.

Closest aviation weather report (METAR) to Ministry of Interior Heliport

Closest report is Al Bateen Executive Airport, 1.9 nm (3.5 km) ENE.

2024/04/22 05:00 (retrieved 46 minutes ago)

OMAD 220500Z 04004KT 360V080 CAVOK 28/16 Q1010 NOSIG

Closest aviation forecast (TAF) to Ministry of Interior Heliport

Forecast is more than 6 hours old.

Closest forecast is Hamad International Airport, 161.7 nm (299.5 km) WNW.

2024/04/21 18:00 (retrieved 12 hours ago)

TAF OTHH 211701Z 2118/2224 11012KT 8000 NSC TEMPO 2120/2205 13014G24KT FEW040 PROB30 TEMPO 2200/2206 6000 -RA FEW035 SCT100